createdAt,value
2019-04-23T00:01:08.036Z,30.93
2019-04-23T00:06:10.081Z,31.26
2019-04-23T00:11:15.712Z,31.51
2019-04-23T00:16:26.298Z,31.91
2019-04-23T00:31:31.168Z,32.74
2019-04-23T00:36:37.479Z,33.01
2019-04-23T00:46:43.466Z,33.64
2019-04-23T00:51:42.892Z,33.84
2019-04-23T01:01:56.766Z,34.34
2019-04-23T01:06:56.315Z,34.59
2019-04-23T01:12:02.741Z,34.80
2019-04-23T01:16:51.937Z,35.02
2019-04-23T01:21:41.156Z,35.28
2019-04-23T01:27:39.003Z,35.53
2019-04-23T01:32:32.053Z,35.90
2019-04-23T01:37:36.873Z,35.95
2019-04-23T01:42:41.391Z,36.08
2019-04-23T01:47:38.830Z,36.33
2019-04-23T01:52:45.618Z,36.49
2019-04-23T01:57:47.194Z,36.87
2019-04-23T02:02:49.531Z,36.98
2019-04-23T02:07:50.713Z,37.20
2019-04-23T02:12:55.599Z,37.11
2019-04-23T02:17:58.729Z,37.46
2019-04-23T02:23:13.293Z,37.60
2019-04-23T02:28:13.997Z,37.80
2019-04-23T02:33:29.333Z,38.03
2019-04-23T02:38:26.179Z,38.32
2019-04-23T02:48:24.116Z,38.42
2019-04-23T02:58:41.965Z,38.59
2019-04-23T03:03:33.542Z,38.75
2019-04-23T03:08:36.350Z,38.97
2019-04-23T03:13:47.811Z,38.91
2019-04-23T03:24:00.021Z,39.37
2019-04-23T03:29:04.343Z,39.11
2019-04-23T03:35:09.805Z,39.52
2019-04-23T03:39:18.809Z,39.66
2019-04-23T03:44:06.649Z,39.88
2019-04-23T03:54:28.417Z,40.10
2019-04-23T03:59:20.009Z,40.38
2019-04-23T04:09:25.959Z,40.52
2019-04-23T04:24:42.710Z,40.85
2019-04-23T04:29:44.420Z,41.00
2019-04-23T04:39:42.869Z,41.57
2019-04-23T04:44:42.765Z,41.47
2019-04-23T04:54:24.695Z,41.56
2019-04-23T04:59:54.190Z,41.66
2019-04-23T05:19:50.994Z,41.59
2019-04-23T05:24:54.974Z,41.60
2019-04-23T05:30:00.910Z,41.34
2019-04-23T05:34:57.644Z,41.17
2019-04-23T05:40:08.054Z,40.86
2019-04-23T05:50:13.683Z,40.75
2019-04-23T06:00:13.854Z,40.50
2019-04-23T06:05:19.260Z,40.26
2019-04-23T06:10:16.519Z,40.36
2019-04-23T06:15:20.759Z,40.04
2019-04-23T06:20:29.996Z,39.54
2019-04-23T06:30:25.760Z,38.92
2019-04-23T06:35:45.103Z,39.19
2019-04-23T06:40:26.623Z,38.86
2019-04-23T06:45:32.215Z,38.40
2019-04-23T06:50:43.586Z,38.65
2019-04-23T06:55:47.128Z,38.53
2019-04-23T07:00:44.622Z,37.70
2019-04-23T07:06:11.761Z,37.90
2019-04-23T07:11:11.095Z,37.70
2019-04-23T07:16:03.205Z,37.30
2019-04-23T07:21:13.332Z,36.57
2019-04-23T07:26:26.200Z,36.63
2019-04-23T07:31:22.415Z,36.40
2019-04-23T07:36:22.885Z,35.94
2019-04-23T07:41:36.110Z,35.17
2019-04-23T07:46:36.657Z,34.54
2019-04-23T07:51:31.535Z,34.71
2019-04-23T07:56:35.691Z,34.84
2019-04-23T08:01:34.978Z,34.73
2019-04-23T08:06:41.179Z,34.50
2019-04-23T08:11:56.766Z,34.57
2019-04-23T08:16:38.407Z,34.10
2019-04-23T08:21:53.821Z,34.05
2019-04-23T08:27:07.534Z,33.57
2019-04-23T08:32:00.871Z,32.95
2019-04-23T08:37:03.276Z,31.83
2019-04-23T08:47:03.315Z,30.53
2019-04-23T08:52:10.053Z,30.42
2019-04-23T08:57:08.695Z,30.38
2019-04-23T09:02:31.058Z,29.55
2019-04-23T09:07:16.677Z,29.95
2019-04-23T09:12:18.812Z,28.93
2019-04-23T09:22:22.981Z,28.27
2019-04-23T09:27:26.194Z,28.76
2019-04-23T09:37:26.542Z,27.45
2019-04-23T09:42:38.913Z,27.10
2019-04-23T09:48:01.541Z,27.02
2019-04-23T09:58:03.250Z,24.96
2019-04-23T10:02:56.858Z,22.36
2019-04-23T10:07:49.469Z,21.47
2019-04-23T10:12:43.951Z,21.76
2019-04-23T10:17:46.312Z,22.81
2019-04-23T10:22:48.249Z,21.91
2019-04-23T10:27:55.180Z,23.22
2019-04-23T10:32:53.630Z,24.27
2019-04-23T10:38:03.691Z,25.60
2019-04-23T10:42:59.690Z,26.44
2019-04-23T10:49:11.261Z,26.34
2019-04-23T10:53:52.067Z,25.20
2019-04-23T10:58:58.442Z,25.25
2019-04-23T11:04:10.031Z,23.98
2019-04-23T11:09:07.916Z,23.22
2019-04-23T11:14:16.211Z,21.48
2019-04-23T11:19:15.448Z,19.66
2019-04-23T11:24:25.213Z,18.30
2019-04-23T11:29:20.845Z,16.63
2019-04-23T11:39:16.472Z,19.20
2019-04-23T11:44:26.422Z,20.68
2019-04-23T11:54:27.749Z,21.83
2019-04-23T11:59:36.384Z,23.20
2019-04-23T12:04:50.186Z,22.57
2019-04-23T12:14:56.236Z,22.96
2019-04-23T12:20:12.294Z,23.55
2019-04-23T12:30:06.083Z,26.42
2019-04-23T12:40:15.691Z,26.97
2019-04-23T12:50:38.332Z,27.69
2019-04-23T13:00:22.500Z,30.31
2019-04-23T13:05:23.229Z,31.04
2019-04-23T13:10:33.744Z,31.93
2019-04-23T13:15:22.793Z,31.87
2019-04-23T13:20:27.326Z,32.45
2019-04-23T13:25:39.949Z,32.66
2019-04-23T13:35:56.813Z,32.96
2019-04-23T13:40:53.167Z,33.36
2019-04-23T13:51:00.003Z,33.60
2019-04-23T13:55:55.987Z,33.34
2019-04-23T14:01:07.442Z,33.75
2019-04-23T14:06:01.778Z,34.21
2019-04-23T14:11:05.553Z,34.03
2019-04-23T14:16:03.979Z,34.13
2019-04-23T14:21:14.255Z,33.88
2019-04-23T14:26:18.615Z,33.99
2019-04-23T14:31:13.048Z,33.74
2019-04-23T14:36:17.688Z,34.23
2019-04-23T14:46:34.936Z,33.71
2019-04-23T14:56:27.723Z,33.43
2019-04-23T15:01:49.206Z,33.62
2019-04-23T15:06:54.851Z,33.45
2019-04-23T15:11:44.224Z,33.92
2019-04-23T15:31:52.397Z,34.09
2019-04-23T15:41:55.952Z,33.84
2019-04-23T15:47:02.033Z,34.46
2019-04-23T15:51:56.599Z,34.57
2019-04-23T16:01:42.551Z,34.76
2019-04-23T16:06:38.832Z,35.23
2019-04-23T16:11:58.961Z,35.25
2019-04-23T16:22:13.217Z,35.79
2019-04-23T16:27:11.145Z,35.88
2019-04-23T16:32:28.333Z,36.01
2019-04-23T16:37:23.243Z,36.76
2019-04-23T16:42:23.728Z,36.12
2019-04-23T16:47:26.426Z,36.84
2019-04-23T16:52:26.746Z,37.24
2019-04-23T16:57:40.707Z,38.01
2019-04-23T17:02:54.677Z,37.50
2019-04-23T17:07:39.979Z,37.79
2019-04-23T17:12:41.653Z,37.99
2019-04-23T17:17:43.418Z,38.93
2019-04-23T17:27:48.488Z,39.94
2019-04-23T17:33:07.883Z,40.27
2019-04-23T17:38:14.983Z,40.54
2019-04-23T17:43:16.579Z,41.01
2019-04-23T17:48:12.946Z,41.19
2019-04-23T17:53:14.408Z,41.59
2019-04-23T17:58:16.326Z,41.95
2019-04-23T18:03:20.396Z,42.33
2019-04-23T18:08:17.871Z,42.66
2019-04-23T18:13:22.873Z,42.93
2019-04-23T18:18:30.672Z,42.46
2019-04-23T18:23:36.253Z,42.40
2019-04-23T18:28:37.232Z,43.24
2019-04-23T18:43:52.312Z,45.64
2019-04-23T18:48:50.470Z,46.44
2019-04-23T18:54:08.504Z,47.31
2019-04-23T18:59:00.393Z,48.30
2019-04-23T19:04:09.663Z,49.02
2019-04-23T19:14:07.827Z,50.58
2019-04-23T19:19:09.641Z,50.47
2019-04-23T19:24:22.166Z,50.95
2019-04-23T19:29:23.565Z,51.09
2019-04-23T19:34:30.328Z,51.03
2019-04-23T19:39:24.972Z,51.37
2019-04-23T19:44:27.908Z,51.43
2019-04-23T19:49:28.366Z,51.78
2019-04-23T19:59:39.534Z,51.41
2019-04-23T20:04:42.844Z,51.35
2019-04-23T20:09:46.131Z,51.47
2019-04-23T20:14:44.223Z,51.58
2019-04-23T20:19:44.026Z,51.35
2019-04-23T20:35:21.634Z,50.20
2019-04-23T20:40:30.568Z,49.91
2019-04-23T20:45:14.248Z,48.94
2019-04-23T20:50:05.500Z,49.09
2019-04-23T20:55:19.160Z,48.94
2019-04-23T21:00:32.486Z,47.49
2019-04-23T21:05:21.811Z,46.47
2019-04-23T21:20:37.946Z,45.82
2019-04-23T21:30:58.940Z,45.18
2019-04-23T21:41:13.809Z,45.34
2019-04-23T22:01:20.554Z,45.34
2019-04-23T22:06:23.631Z,45.52
2019-04-23T22:26:28.567Z,45.22
2019-04-23T22:36:28.935Z,45.29
2019-04-23T22:41:37.177Z,45.32
2019-04-23T22:46:48.369Z,45.46
2019-04-23T22:51:46.340Z,45.77
2019-04-23T22:56:51.914Z,45.81
2019-04-23T23:02:00.383Z,45.90
2019-04-23T23:06:55.560Z,46.03
2019-04-23T23:16:53.237Z,46.24
2019-04-23T23:27:09.782Z,46.15
2019-04-23T23:32:00.487Z,46.45
2019-04-23T23:37:07.469Z,46.40
2019-04-23T23:42:02.816Z,46.54
2019-04-23T23:47:09.046Z,46.62
2019-04-23T23:52:02.888Z,46.76
